createdAt,value
2022-08-17T00:01:51.795Z,93.80
2022-08-17T00:04:23.264Z,94.00
2022-08-17T00:06:53.708Z,93.90
2022-08-17T00:09:23.974Z,93.90
2022-08-17T00:12:41.280Z,93.90
2022-08-17T00:14:50.521Z,94.00
2022-08-17T00:17:21.269Z,94.10
2022-08-17T00:19:51.533Z,94.30
2022-08-17T00:22:33.882Z,94.30
2022-08-17T00:25:09.832Z,94.10
2022-08-17T00:27:43.661Z,94.40
2022-08-17T00:30:17.720Z,94.30
2022-08-17T00:33:14.542Z,94.40
2022-08-17T00:35:43.617Z,94.40
2022-08-17T00:38:17.456Z,94.70
2022-08-17T00:40:50.526Z,94.70
2022-08-17T00:43:24.957Z,94.50
2022-08-17T00:45:58.817Z,94.70
2022-08-17T00:48:30.791Z,94.80
2022-08-17T00:51:10.963Z,94.90
2022-08-17T00:53:54.268Z,94.60
2022-08-17T00:56:30.049Z,95.00
2022-08-17T00:59:00.996Z,95.00
2022-08-17T01:01:35.216Z,95.10
2022-08-17T01:04:06.841Z,95.00
2022-08-17T01:06:37.571Z,94.80
2022-08-17T01:09:08.864Z,95.20
2022-08-17T01:11:40.733Z,94.70
2022-08-17T01:14:11.866Z,94.80
2022-08-17T01:16:47.845Z,95.30
2022-08-17T01:19:22.013Z,95.30
2022-08-17T01:21:56.818Z,95.60
2022-08-17T01:24:30.333Z,95.30
2022-08-17T01:27:10.305Z,95.60
2022-08-17T01:29:44.367Z,95.50
2022-08-17T01:32:15.011Z,95.60
2022-08-17T01:34:50.573Z,95.80
2022-08-17T01:37:23.226Z,95.70
2022-08-17T01:40:00.540Z,95.50
2022-08-17T01:42:40.605Z,96.00
2022-08-17T01:45:14.821Z,96.20
2022-08-17T01:47:45.056Z,96.10
2022-08-17T01:50:18.771Z,96.10
2022-08-17T01:52:54.324Z,95.90
2022-08-17T01:55:33.352Z,95.90
2022-08-17T01:58:03.724Z,96.50
2022-08-17T02:00:46.835Z,96.50
2022-08-17T02:03:27.289Z,96.60
2022-08-17T02:06:00.832Z,96.80
2022-08-17T02:08:38.784Z,96.70
2022-08-17T02:11:16.912Z,96.60
2022-08-17T02:13:48.724Z,96.90
2022-08-17T02:16:28.228Z,97.10
2022-08-17T02:19:09.088Z,97.20
2022-08-17T02:21:40.154Z,97.20
2022-08-17T02:24:13.406Z,97.40
2022-08-17T02:26:47.484Z,97.50
2022-08-17T02:29:17.900Z,97.10
2022-08-17T02:31:48.687Z,97.20
2022-08-17T02:34:18.924Z,97.10
2022-08-17T02:36:49.273Z,97.20
2022-08-17T02:39:19.564Z,97.30
2022-08-17T02:41:52.858Z,97.10
2022-08-17T02:44:38.845Z,97.30
2022-08-17T02:47:11.858Z,97.40
2022-08-17T02:49:46.309Z,97.50
2022-08-17T02:52:43.003Z,96.90
2022-08-17T02:55:16.334Z,97.10
2022-08-17T02:57:49.663Z,97.20
2022-08-17T03:00:24.088Z,97.00
2022-08-17T03:02:55.242Z,97.00
2022-08-17T03:05:28.376Z,97.10
2022-08-17T03:07:59.096Z,97.10
2022-08-17T03:10:29.909Z,97.10
2022-08-17T03:13:03.285Z,97.10
2022-08-17T03:15:36.892Z,97.20
2022-08-17T03:18:19.185Z,97.20
2022-08-17T03:20:56.425Z,97.30
2022-08-17T03:23:27.383Z,97.40
2022-08-17T03:25:58.367Z,97.60
2022-08-17T03:28:31.278Z,97.70
2022-08-17T03:31:01.692Z,97.70
2022-08-17T03:33:32.375Z,97.80
2022-08-17T03:36:03.021Z,97.80
2022-08-17T03:38:39.277Z,97.80
2022-08-17T03:41:10.195Z,97.90
2022-08-17T03:43:46.224Z,97.90
2022-08-17T03:46:35.037Z,97.90
2022-08-17T03:49:20.005Z,98.00
2022-08-17T03:52:14.305Z,98.10
2022-08-17T03:55:00.226Z,98.10
2022-08-17T03:57:31.270Z,98.10
2022-08-17T04:00:04.817Z,98.20
2022-08-17T04:02:42.342Z,98.40
2022-08-17T04:05:13.147Z,98.50
2022-08-17T04:07:43.463Z,98.50
2022-08-17T04:10:14.437Z,98.80
2022-08-17T04:12:50.328Z,98.60
2022-08-17T04:15:24.283Z,98.80
2022-08-17T04:17:55.100Z,98.70
2022-08-17T04:20:27.785Z,98.90
2022-08-17T04:23:05.006Z,99.00
2022-08-17T04:25:37.488Z,99.50
2022-08-17T04:28:15.841Z,99.90
2022-08-17T04:30:51.288Z,99.90
2022-08-17T04:33:26.714Z,99.90
2022-08-17T04:35:59.380Z,99.90
2022-08-17T04:38:31.559Z,99.90
2022-08-17T04:41:18.191Z,99.90
2022-08-17T04:43:55.174Z,99.90
2022-08-17T04:46:33.001Z,99.90
2022-08-17T04:49:05.717Z,99.90
2022-08-17T04:51:38.743Z,99.90
2022-08-17T04:54:18.162Z,99.90
2022-08-17T04:56:48.754Z,99.90
2022-08-17T04:59:24.926Z,99.90
2022-08-17T05:01:57.827Z,99.90
2022-08-17T05:04:34.217Z,99.90
2022-08-17T05:07:05.615Z,99.90
2022-08-17T05:09:35.950Z,99.90
2022-08-17T05:12:06.945Z,99.90
2022-08-17T05:14:37.180Z,99.90
2022-08-17T05:17:11.086Z,99.90
2022-08-17T05:19:41.856Z,99.90
2022-08-17T05:22:12.125Z,99.90
2022-08-17T05:24:53.321Z,99.90
2022-08-17T05:27:24.340Z,99.90
2022-08-17T05:29:59.744Z,99.90
2022-08-17T05:32:39.364Z,99.90
2022-08-17T05:35:11.555Z,99.90
2022-08-17T05:37:42.013Z,99.90
2022-08-17T05:40:13.250Z,99.90
2022-08-17T05:42:43.623Z,99.90
2022-08-17T05:45:15.851Z,99.90
2022-08-17T05:47:56.577Z,99.90
2022-08-17T05:50:31.388Z,99.90
2022-08-17T05:53:08.961Z,99.90
2022-08-17T05:55:51.930Z,99.90
2022-08-17T05:58:34.377Z,99.90
2022-08-17T06:01:10.736Z,99.90
2022-08-17T06:03:52.377Z,99.90
2022-08-17T06:06:34.685Z,99.90
2022-08-17T06:09:30.168Z,99.90
2022-08-17T06:12:18.882Z,99.90
2022-08-17T06:15:07.644Z,99.90
2022-08-17T06:17:38.392Z,99.90
2022-08-17T06:20:15.889Z,99.90
2022-08-17T06:22:50.843Z,99.90
2022-08-17T06:25:25.603Z,99.90
2022-08-17T06:28:00.812Z,99.90
2022-08-17T06:30:59.902Z,99.90
2022-08-17T06:33:29.118Z,99.90
2022-08-17T06:36:11.196Z,99.90
2022-08-17T06:38:55.827Z,99.90
2022-08-17T06:41:31.969Z,99.90
2022-08-17T06:44:43.169Z,99.90
2022-08-17T06:47:12.795Z,99.90
2022-08-17T06:49:55.191Z,99.90
2022-08-17T06:52:43.448Z,99.90
2022-08-17T06:55:23.111Z,99.90
2022-08-17T06:57:56.749Z,99.90
2022-08-17T07:00:33.692Z,99.90
2022-08-17T07:03:12.852Z,99.90
2022-08-17T07:05:47.835Z,99.90
2022-08-17T07:08:30.066Z,99.90
2022-08-17T07:11:07.958Z,99.90
2022-08-17T07:13:51.287Z,99.90
2022-08-17T07:16:27.804Z,99.90
2022-08-17T07:19:00.169Z,99.90
2022-08-17T07:21:46.239Z,99.90
2022-08-17T07:24:30.810Z,99.90
2022-08-17T07:27:17.267Z,99.90
2022-08-17T07:29:53.979Z,99.90
2022-08-17T07:32:31.646Z,99.90
2022-08-17T07:35:20.077Z,99.90
2022-08-17T07:38:25.891Z,99.90
2022-08-17T07:41:07.898Z,99.90
2022-08-17T07:43:39.783Z,99.90
2022-08-17T07:46:32.158Z,99.90
2022-08-17T07:49:21.875Z,99.90
2022-08-17T07:52:47.445Z,99.90
2022-08-17T07:54:56.248Z,99.90
2022-08-17T07:57:40.518Z,99.90
2022-08-17T08:00:32.223Z,99.90
2022-08-17T08:03:28.492Z,99.90
2022-08-17T08:06:02.737Z,99.90
2022-08-17T08:08:41.073Z,99.90
2022-08-17T08:11:15.727Z,99.90
2022-08-17T08:13:50.358Z,99.90
2022-08-17T08:16:31.024Z,99.90
2022-08-17T08:19:06.044Z,99.90
2022-08-17T08:21:47.538Z,99.90
2022-08-17T08:24:35.925Z,99.90
2022-08-17T08:27:14.028Z,99.90
2022-08-17T08:29:57.860Z,99.90
2022-08-17T08:32:43.024Z,99.90
2022-08-17T08:35:26.857Z,99.90
2022-08-17T08:38:09.673Z,99.90
2022-08-17T08:41:01.937Z,99.90
2022-08-17T08:43:41.628Z,99.90
2022-08-17T08:46:23.615Z,99.90
2022-08-17T08:49:39.045Z,99.90
2022-08-17T08:52:21.951Z,99.90
2022-08-17T08:54:59.015Z,99.90
2022-08-17T08:57:34.772Z,99.90
2022-08-17T09:00:16.467Z,99.90
2022-08-17T09:03:16.957Z,99.90
2022-08-17T09:06:33.417Z,99.90
2022-08-17T09:09:19.198Z,99.90
2022-08-17T09:12:01.987Z,99.90
2022-08-17T09:14:46.603Z,99.90
2022-08-17T09:17:21.810Z,99.90
2022-08-17T09:19:57.606Z,99.90
2022-08-17T09:22:36.502Z,99.90
2022-08-17T09:25:12.236Z,99.90
2022-08-17T09:28:00.591Z,99.90
2022-08-17T09:30:39.051Z,99.90
2022-08-17T09:33:14.397Z,99.90
2022-08-17T09:35:49.636Z,99.90
2022-08-17T09:38:32.513Z,99.90
2022-08-17T09:41:12.292Z,99.90
2022-08-17T09:43:49.620Z,99.90
2022-08-17T09:46:25.013Z,99.90
2022-08-17T09:49:00.521Z,99.90
2022-08-17T09:51:35.506Z,99.90
2022-08-17T09:54:38.570Z,99.90
2022-08-17T09:57:30.451Z,99.90
2022-08-17T10:00:19.053Z,99.90
2022-08-17T10:03:05.511Z,99.90
2022-08-17T10:05:45.553Z,99.90
2022-08-17T10:08:25.746Z,99.90
2022-08-17T10:11:22.530Z,99.90
2022-08-17T10:14:37.457Z,99.90
2022-08-17T10:17:12.930Z,99.90
2022-08-17T10:19:52.940Z,99.90
2022-08-17T10:22:43.438Z,99.90
2022-08-17T10:25:42.621Z,99.90
2022-08-17T10:28:29.493Z,99.90
2022-08-17T10:31:33.213Z,99.90
2022-08-17T10:34:10.124Z,99.90
2022-08-17T10:36:52.720Z,99.90
2022-08-17T10:39:31.202Z,99.90
2022-08-17T10:42:03.611Z,99.90
2022-08-17T10:44:48.517Z,99.90
2022-08-17T10:47:21.277Z,99.90
2022-08-17T10:49:56.197Z,99.90
2022-08-17T10:52:55.249Z,99.90
2022-08-17T10:55:25.985Z,99.90
2022-08-17T10:58:21.229Z,99.90
2022-08-17T11:01:12.847Z,99.90
2022-08-17T11:03:55.226Z,99.90
2022-08-17T11:06:34.157Z,99.90
2022-08-17T11:09:28.448Z,99.90
2022-08-17T11:12:24.015Z,99.90
2022-08-17T11:15:07.024Z,99.90
2022-08-17T11:18:07.913Z,99.90
2022-08-17T11:21:20.474Z,99.90
2022-08-17T11:24:11.903Z,99.90
2022-08-17T11:26:47.786Z,99.90
2022-08-17T11:29:24.945Z,99.90
2022-08-17T11:32:06.233Z,99.90
2022-08-17T11:34:45.809Z,99.90
2022-08-17T11:37:40.398Z,99.90
2022-08-17T11:40:25.585Z,99.90
2022-08-17T11:43:11.674Z,99.90
2022-08-17T11:46:01.295Z,99.90
2022-08-17T11:48:53.479Z,99.90
2022-08-17T11:51:47.058Z,99.90
2022-08-17T11:54:45.796Z,99.90
2022-08-17T11:57:46.275Z,99.90
2022-08-17T12:00:52.033Z,99.90
2022-08-17T12:03:55.947Z,99.90
2022-08-17T12:06:51.311Z,99.90
2022-08-17T12:09:24.987Z,99.90
2022-08-17T12:12:12.962Z,99.90
2022-08-17T12:17:42.721Z,99.90
2022-08-17T12:20:23.276Z,99.90
2022-08-17T12:23:06.363Z,99.90
2022-08-17T12:25:41.914Z,99.90
2022-08-17T12:28:24.890Z,99.90
2022-08-17T12:30:56.022Z,99.90
2022-08-17T12:33:29.084Z,99.90
2022-08-17T12:36:03.082Z,99.90
2022-08-17T12:38:38.030Z,99.90
2022-08-17T12:41:22.730Z,99.90
2022-08-17T12:44:01.815Z,99.90
2022-08-17T12:46:38.932Z,99.90
2022-08-17T12:49:17.207Z,99.90
2022-08-17T12:51:49.520Z,99.90
2022-08-17T12:54:37.434Z,99.90
2022-08-17T12:57:13.651Z,99.90
2022-08-17T12:59:46.940Z,99.90
2022-08-17T13:02:43.073Z,99.90
2022-08-17T13:05:30.781Z,99.90
2022-08-17T13:08:04.610Z,99.90
2022-08-17T13:10:39.044Z,99.90
2022-08-17T13:13:26.473Z,99.90
2022-08-17T13:16:00.070Z,99.90
2022-08-17T13:18:43.369Z,99.90
2022-08-17T13:21:27.087Z,99.90
2022-08-17T13:24:00.417Z,99.90
2022-08-17T13:26:37.306Z,99.90
2022-08-17T13:29:10.622Z,99.90
2022-08-17T13:31:52.160Z,99.90
2022-08-17T13:35:11.824Z,99.90
2022-08-17T13:37:35.397Z,99.90
2022-08-17T13:40:35.288Z,99.90
2022-08-17T13:43:08.500Z,99.90
2022-08-17T13:45:50.419Z,99.90
2022-08-17T13:48:32.183Z,99.90
2022-08-17T13:51:20.099Z,99.90
2022-08-17T13:53:59.552Z,99.90
2022-08-17T13:56:40.553Z,99.90
2022-08-17T13:59:18.165Z,99.90
2022-08-17T14:02:08.537Z,99.90
2022-08-17T14:04:41.436Z,99.90
2022-08-17T14:07:31.538Z,99.90
2022-08-17T14:10:04.147Z,99.90
2022-08-17T14:12:36.650Z,99.90
2022-08-17T14:15:11.196Z,99.90
2022-08-17T14:17:41.517Z,99.90
2022-08-17T14:20:14.757Z,99.90
2022-08-17T14:22:49.668Z,99.90
2022-08-17T14:25:23.690Z,99.90
2022-08-17T14:27:55.231Z,99.90
2022-08-17T14:30:31.185Z,99.90
2022-08-17T14:33:02.338Z,99.90
2022-08-17T14:35:32.729Z,99.90
2022-08-17T14:38:03.965Z,99.90
2022-08-17T14:40:36.138Z,99.90
2022-08-17T14:43:06.605Z,99.90
2022-08-17T14:45:39.709Z,99.90
2022-08-17T14:48:10.445Z,99.90
2022-08-17T14:50:43.614Z,99.90
2022-08-17T14:53:16.439Z,99.90
2022-08-17T14:55:47.680Z,99.90
2022-08-17T14:58:19.656Z,99.90
2022-08-17T15:00:53.718Z,99.90
2022-08-17T15:03:24.128Z,99.90
2022-08-17T15:05:54.598Z,99.90
2022-08-17T15:08:25.448Z,99.90
2022-08-17T15:10:55.805Z,99.90
2022-08-17T15:13:28.066Z,99.90
2022-08-17T15:16:02.727Z,99.90
2022-08-17T15:18:34.290Z,99.90
2022-08-17T15:21:06.841Z,99.90
2022-08-17T15:23:37.308Z,99.90
2022-08-17T15:26:07.737Z,99.90
2022-08-17T15:28:38.218Z,99.90
2022-08-17T15:31:11.289Z,99.90
2022-08-17T15:33:41.667Z,99.90
2022-08-17T15:36:12.304Z,99.90
2022-08-17T15:38:44.390Z,99.90
2022-08-17T15:41:18.424Z,99.90
2022-08-17T15:43:50.200Z,99.90
2022-08-17T15:46:25.744Z,99.90
2022-08-17T15:49:00.150Z,99.90
2022-08-17T15:51:33.445Z,99.90
2022-08-17T15:54:18.840Z,99.90
2022-08-17T15:56:52.628Z,99.90
2022-08-17T15:59:22.903Z,99.90
2022-08-17T16:03:14.192Z,99.90
2022-08-17T16:04:46.907Z,99.90
2022-08-17T16:07:26.449Z,99.90
2022-08-17T16:09:57.137Z,99.90
2022-08-17T16:12:27.628Z,99.90
2022-08-17T16:14:59.783Z,99.90
2022-08-17T16:17:40.310Z,99.90
2022-08-17T16:20:19.918Z,99.90
2022-08-17T16:22:52.682Z,99.90
2022-08-17T16:25:52.046Z,99.90
2022-08-17T16:28:22.227Z,99.90
2022-08-17T16:30:52.641Z,99.90
2022-08-17T16:33:25.599Z,99.90
2022-08-17T16:35:55.830Z,99.90
2022-08-17T16:38:26.189Z,99.90
2022-08-17T16:40:56.450Z,99.90
2022-08-17T16:43:26.810Z,99.90
2022-08-17T16:45:57.044Z,99.90
2022-08-17T16:48:30.689Z,99.90
2022-08-17T16:51:04.512Z,99.90
2022-08-17T16:53:35.043Z,99.90
2022-08-17T16:56:07.706Z,99.90
2022-08-17T16:58:40.966Z,99.90
2022-08-17T17:01:12.968Z,99.90
2022-08-17T17:03:49.146Z,99.90
2022-08-17T17:06:29.241Z,99.90
2022-08-17T17:09:03.402Z,99.90
2022-08-17T17:11:37.603Z,99.90
2022-08-17T17:14:12.189Z,99.90
2022-08-17T17:16:48.889Z,99.90
2022-08-17T17:19:35.204Z,99.90
2022-08-17T17:22:16.699Z,99.90
2022-08-17T17:24:54.594Z,99.90
2022-08-17T17:27:36.601Z,99.90
2022-08-17T17:30:12.560Z,99.90
2022-08-17T17:32:47.600Z,99.90
2022-08-17T17:35:27.120Z,99.90
2022-08-17T17:38:00.108Z,99.90
2022-08-17T17:40:38.483Z,99.90
2022-08-17T17:43:37.151Z,99.90
2022-08-17T17:46:26.386Z,99.90
2022-08-17T17:48:56.913Z,99.90
2022-08-17T17:52:07.134Z,99.90
2022-08-17T17:54:41.707Z,99.90
2022-08-17T17:57:21.507Z,99.90
2022-08-17T18:00:03.614Z,99.90
2022-08-17T18:02:53.307Z,99.90
2022-08-17T18:05:56.020Z,99.90
2022-08-17T18:08:40.454Z,99.90
2022-08-17T18:11:25.054Z,99.90
2022-08-17T18:14:14.664Z,99.90
2022-08-17T18:16:45.480Z,99.90
2022-08-17T18:19:20.236Z,99.90
2022-08-17T18:21:54.930Z,99.90
2022-08-17T18:24:38.127Z,99.90
2022-08-17T18:27:23.338Z,99.90
2022-08-17T18:29:55.782Z,99.90
2022-08-17T18:32:38.162Z,99.90
2022-08-17T18:35:30.448Z,99.90
2022-08-17T18:38:20.726Z,99.90
2022-08-17T18:41:05.486Z,99.90
2022-08-17T18:43:53.143Z,99.90
2022-08-17T18:46:30.670Z,99.90
2022-08-17T18:49:05.405Z,99.90
2022-08-17T18:51:42.448Z,99.90
2022-08-17T18:54:23.635Z,99.90
2022-08-17T18:56:59.085Z,99.90
2022-08-17T18:59:37.749Z,99.90
2022-08-17T19:05:31.506Z,99.90
2022-08-17T19:08:20.406Z,99.90
2022-08-17T19:10:54.175Z,99.90
2022-08-17T19:13:32.588Z,99.90
2022-08-17T19:16:14.612Z,99.90
2022-08-17T19:18:52.172Z,99.90
2022-08-17T19:21:26.935Z,99.90
2022-08-17T19:24:03.512Z,99.90
2022-08-17T19:26:53.716Z,99.90
2022-08-17T19:29:41.439Z,99.90
2022-08-17T19:32:13.057Z,99.90
2022-08-17T19:34:44.890Z,99.90
2022-08-17T19:37:28.653Z,99.90
2022-08-17T19:40:08.163Z,99.90
2022-08-17T19:42:47.726Z,99.90
2022-08-17T19:45:36.231Z,99.90
2022-08-17T19:48:16.901Z,99.90
2022-08-17T19:50:52.840Z,99.90
2022-08-17T19:54:01.789Z,99.90
2022-08-17T19:56:31.887Z,99.90
2022-08-17T19:59:04.806Z,99.90
2022-08-17T20:01:44.210Z,99.90
2022-08-17T20:04:18.638Z,99.90
2022-08-17T20:06:53.486Z,99.90
2022-08-17T20:09:34.505Z,99.90
2022-08-17T20:12:08.844Z,99.90
2022-08-17T20:14:53.413Z,99.90
2022-08-17T20:17:30.825Z,99.90
2022-08-17T20:20:08.574Z,99.90
2022-08-17T20:22:57.047Z,99.90
2022-08-17T20:25:36.540Z,99.90
2022-08-17T20:28:18.461Z,99.90
2022-08-17T20:30:52.043Z,99.90
2022-08-17T20:33:31.668Z,99.90
2022-08-17T20:36:22.782Z,99.90
2022-08-17T20:38:56.783Z,99.90
2022-08-17T20:41:29.012Z,99.90
2022-08-17T20:44:07.741Z,99.90
2022-08-17T20:46:59.872Z,99.90
2022-08-17T20:49:48.125Z,99.90
2022-08-17T20:52:39.602Z,99.90
2022-08-17T20:55:32.699Z,99.90
2022-08-17T20:58:40.740Z,99.90
2022-08-17T21:01:16.304Z,99.90
2022-08-17T21:03:54.359Z,99.90
2022-08-17T21:06:27.437Z,99.90
2022-08-17T21:09:28.086Z,99.90
2022-08-17T21:12:05.677Z,99.90
2022-08-17T21:14:48.219Z,99.90
2022-08-17T21:17:50.115Z,99.90
2022-08-17T21:20:37.478Z,99.90
2022-08-17T21:23:33.113Z,99.90
2022-08-17T21:26:30.351Z,99.90
2022-08-17T21:29:29.953Z,99.90
2022-08-17T21:32:25.306Z,99.90
2022-08-17T21:35:25.618Z,99.90
2022-08-17T21:38:02.785Z,99.90
2022-08-17T21:40:35.392Z,99.90
2022-08-17T21:43:25.972Z,99.90
2022-08-17T21:46:06.335Z,99.90
2022-08-17T21:48:49.490Z,99.90
2022-08-17T21:51:29.284Z,99.90
2022-08-17T21:54:02.418Z,99.90
2022-08-17T21:56:36.421Z,99.90
2022-08-17T21:59:10.441Z,99.90
2022-08-17T22:01:43.655Z,99.90
2022-08-17T22:04:29.935Z,99.90
2022-08-17T22:07:02.442Z,99.90
2022-08-17T22:09:35.860Z,99.90
2022-08-17T22:12:11.368Z,99.90
2022-08-17T22:14:53.211Z,99.90
2022-08-17T22:17:27.031Z,99.90
2022-08-17T22:20:02.780Z,99.90
2022-08-17T22:22:59.769Z,99.90
2022-08-17T22:25:29.752Z,99.90
2022-08-17T22:28:02.737Z,99.90
2022-08-17T22:30:37.750Z,99.90
2022-08-17T22:33:40.906Z,99.90
2022-08-17T22:36:29.811Z,99.90
2022-08-17T22:39:01.906Z,99.90
2022-08-17T22:41:36.139Z,99.90
2022-08-17T22:44:26.180Z,99.90
2022-08-17T22:47:03.953Z,99.90
2022-08-17T22:49:38.812Z,99.90
2022-08-17T22:52:35.364Z,99.90
2022-08-17T22:55:29.207Z,99.90
2022-08-17T22:58:12.436Z,99.90
2022-08-17T23:00:45.460Z,99.90
2022-08-17T23:03:22.332Z,99.90
2022-08-17T23:06:06.537Z,99.90
2022-08-17T23:08:48.490Z,99.90
2022-08-17T23:11:18.979Z,99.90
2022-08-17T23:14:06.704Z,99.90
2022-08-17T23:16:37.352Z,99.90
2022-08-17T23:19:08.542Z,99.90
2022-08-17T23:21:39.523Z,99.90
2022-08-17T23:24:12.646Z,99.90
2022-08-17T23:26:43.052Z,99.90
2022-08-17T23:29:13.368Z,99.90
2022-08-17T23:31:44.074Z,99.90
2022-08-17T23:34:21.234Z,99.90
2022-08-17T23:36:53.325Z,99.90
2022-08-17T23:39:28.055Z,99.90
2022-08-17T23:42:00.158Z,99.90
2022-08-17T23:44:31.677Z,99.90
2022-08-17T23:47:03.851Z,99.90
2022-08-17T23:49:36.288Z,99.90
2022-08-17T23:52:12.735Z,99.90
2022-08-17T23:54:50.120Z,99.90
2022-08-17T23:57:33.539Z,99.90
